createdAt,value
2023-03-28T00:01:18.145Z,-2.90
2023-03-28T00:03:45.246Z,-2.95
2023-03-28T00:06:20.272Z,-2.97
2023-03-28T00:08:49.613Z,-3.02
2023-03-28T00:11:20.250Z,-3.02
2023-03-28T00:13:50.029Z,-3.05
2023-03-28T00:16:18.577Z,-3.05
2023-03-28T00:18:51.762Z,-3.05
2023-03-28T00:21:20.021Z,-3.06
2023-03-28T00:23:48.275Z,-3.11
2023-03-28T00:26:18.027Z,-3.12
2023-03-28T00:28:49.796Z,-3.16
2023-03-28T00:31:17.553Z,-3.15
2023-03-28T00:33:48.215Z,-3.18
2023-03-28T00:36:20.478Z,-3.20
2023-03-28T00:38:49.280Z,-3.22
2023-03-28T00:41:19.048Z,-3.23
2023-03-28T00:43:50.910Z,-3.28
2023-03-28T00:46:23.174Z,-3.28
2023-03-28T00:48:55.235Z,-3.30
2023-03-28T00:51:24.315Z,-3.35
2023-03-28T00:53:52.249Z,-3.39
2023-03-28T00:56:19.527Z,-3.43
2023-03-28T00:58:47.806Z,-3.47
2023-03-28T01:01:16.329Z,-3.48
2023-03-28T01:03:49.247Z,-3.49
2023-03-28T01:06:17.326Z,-3.49
2023-03-28T01:08:45.128Z,-3.52
2023-03-28T01:11:15.459Z,-3.50
2023-03-28T01:13:44.154Z,-3.48
2023-03-28T01:16:14.850Z,-3.51
2023-03-28T01:18:41.918Z,-3.48
2023-03-28T01:21:14.035Z,-3.45
2023-03-28T01:24:10.776Z,-3.48
2023-03-28T01:26:53.721Z,-3.51
2023-03-28T01:29:33.209Z,-3.52
2023-03-28T01:32:01.697Z,-3.53
2023-03-28T01:34:50.930Z,-3.55
2023-03-28T01:37:31.135Z,-3.54
2023-03-28T01:40:33.837Z,-3.56
2023-03-28T01:43:10.590Z,-3.54
2023-03-28T01:45:38.578Z,-3.52
2023-03-28T01:48:30.692Z,-3.57
2023-03-28T01:51:02.252Z,-3.53
2023-03-28T01:53:36.920Z,-3.57
2023-03-28T01:56:38.515Z,-3.57
2023-03-28T01:59:08.574Z,-3.59
2023-03-28T02:01:54.802Z,-3.64
2023-03-28T02:04:22.896Z,-3.66
2023-03-28T02:06:50.556Z,-3.63
2023-03-28T02:09:20.411Z,-3.64
2023-03-28T02:11:53.378Z,-3.66
2023-03-28T02:14:22.578Z,-3.70
2023-03-28T02:16:55.093Z,-3.70
2023-03-28T02:19:22.879Z,-3.74
2023-03-28T02:22:03.537Z,-3.74
2023-03-28T02:24:36.064Z,-3.75
2023-03-28T02:27:05.016Z,-3.76
2023-03-28T02:29:33.461Z,-3.71
2023-03-28T02:32:05.457Z,-3.72
2023-03-28T02:34:35.061Z,-3.77
2023-03-28T02:42:37.462Z,-3.85
2023-03-28T02:45:26.548Z,-3.86
2023-03-28T02:57:22.714Z,-3.95
2023-03-28T03:00:00.875Z,-3.94
2023-03-28T03:02:37.927Z,-3.95
2023-03-28T03:10:38.889Z,-3.92
2023-03-28T03:13:11.893Z,-3.92
2023-03-28T03:18:24.502Z,-4.02
2023-03-28T03:32:37.785Z,-3.97
2023-03-28T03:35:12.269Z,-4.00
2023-03-28T03:37:47.948Z,-3.99
2023-03-28T08:28:47.272Z,3.76
2023-03-28T08:31:23.735Z,3.65
2023-03-28T09:11:40.856Z,4.76
2023-03-28T09:14:15.520Z,4.71
2023-03-28T09:16:46.635Z,4.70
2023-03-28T09:22:39.672Z,4.72
2023-03-28T09:28:05.903Z,5.97
2023-03-28T10:02:03.084Z,9.61
2023-03-28T10:27:27.938Z,6.81
2023-03-28T11:14:09.273Z,9.73
2023-03-28T12:19:40.052Z,15.91
2023-03-28T15:30:59.023Z,8.76
2023-03-28T15:33:26.555Z,12.04
2023-03-28T15:42:58.002Z,16.77
2023-03-28T15:45:30.025Z,16.83
2023-03-28T15:54:30.212Z,14.73
2023-03-28T16:01:08.716Z,13.67
2023-03-28T16:07:22.060Z,9.79
2023-03-28T16:09:52.591Z,8.69
2023-03-28T16:12:19.706Z,8.07
2023-03-28T16:14:52.460Z,7.37
2023-03-28T16:17:26.668Z,6.92
2023-03-28T16:19:57.018Z,6.77
2023-03-28T16:32:52.052Z,6.19
2023-03-28T20:54:36.041Z,2.10
2023-03-28T20:57:03.644Z,2.07
2023-03-28T20:59:30.684Z,1.98
2023-03-28T21:01:57.567Z,1.94
2023-03-28T21:04:24.703Z,1.96
2023-03-28T21:06:52.364Z,1.94
2023-03-28T21:09:19.882Z,1.97
2023-03-28T21:11:47.554Z,1.96
2023-03-28T21:14:14.597Z,1.94
2023-03-28T21:16:46.451Z,1.89
2023-03-28T21:22:42.852Z,1.80
2023-03-28T21:33:26.310Z,1.80
2023-03-28T21:35:55.807Z,1.77
2023-03-28T21:43:50.265Z,1.74
2023-03-28T22:07:47.860Z,1.62
2023-03-28T22:10:19.977Z,1.67
2023-03-28T23:04:03.165Z,1.82
2023-03-28T23:14:44.194Z,1.86
2023-03-28T23:19:52.696Z,1.92
2023-03-28T23:22:20.002Z,1.93
2023-03-28T23:30:17.610Z,1.94
